sensor_id;sensor_type;location;lat;lon;timestamp;pressure;altitude;pressure_sealevel;temperature;humidity
40490;BME280;26196;52.302;10.572;2022-09-20T00:01:42;100881.22;;;15.12;57.02
40490;BME280;26196;52.302;10.572;2022-09-20T00:05:44;100872.50;;;15.10;56.98
40490;BME280;26196;52.302;10.572;2022-09-20T00:09:45;100875.13;;;15.10;56.93
40490;BME280;26196;52.302;10.572;2022-09-20T00:13:47;100873.41;;;15.09;57.30
40490;BME280;26196;52.302;10.572;2022-09-20T00:17:48;100881.44;;;15.06;56.32
40490;BME280;26196;52.302;10.572;2022-09-20T00:21:49;100886.72;;;15.06;56.54
40490;BME280;26196;52.302;10.572;2022-09-20T00:26:15;100884.19;;;15.03;56.89
40490;BME280;26196;52.302;10.572;2022-09-20T00:30:16;100886.88;;;15.01;56.85
40490;BME280;26196;52.302;10.572;2022-09-20T00:34:17;100889.59;;;15.00;56.36
40490;BME280;26196;52.302;10.572;2022-09-20T00:38:36;100896.66;;;14.99;56.35
40490;BME280;26196;52.302;10.572;2022-09-20T00:42:36;100899.34;;;14.98;56.07
40490;BME280;26196;52.302;10.572;2022-09-20T00:46:40;100896.75;;;14.96;55.91
40490;BME280;26196;52.302;10.572;2022-09-20T00:50:49;100908.19;;;14.97;56.00
40490;BME280;26196;52.302;10.572;2022-09-20T00:54:51;100910.81;;;14.97;56.56
40490;BME280;26196;52.302;10.572;2022-09-20T01:03:02;100912.78;;;14.92;56.11
40490;BME280;26196;52.302;10.572;2022-09-20T01:07:06;100905.88;;;14.87;56.26
40490;BME280;26196;52.302;10.572;2022-09-20T01:11:08;100914.59;;;14.90;56.15
40490;BME280;26196;52.302;10.572;2022-09-20T01:15:08;100916.31;;;14.91;56.00
40490;BME280;26196;52.302;10.572;2022-09-20T01:27:51;100910.47;;;14.82;55.89
40490;BME280;26196;52.302;10.572;2022-09-20T01:31:55;100913.97;;;14.83;55.97
40490;BME280;26196;52.302;10.572;2022-09-20T01:36:02;100908.69;;;14.83;56.30
40490;BME280;26196;52.302;10.572;2022-09-20T01:40:23;100914.03;;;14.81;55.59
40490;BME280;26196;52.302;10.572;2022-09-20T01:44:58;100917.53;;;14.82;56.48
40490;BME280;26196;52.302;10.572;2022-09-20T01:49:13;100908.00;;;14.78;55.90
40490;BME280;26196;52.302;10.572;2022-09-20T02:07:19;100918.78;;;14.72;56.68
40490;BME280;26196;52.302;10.572;2022-09-20T02:11:28;100926.75;;;14.70;56.41
40490;BME280;26196;52.302;10.572;2022-09-20T02:20:21;100925.84;;;14.71;56.37
40490;BME280;26196;52.302;10.572;2022-09-20T02:25:01;100926.75;;;14.70;56.87
40490;BME280;26196;52.302;10.572;2022-09-20T02:33:56;100938.31;;;14.66;56.90
40490;BME280;26196;52.302;10.572;2022-09-20T02:42:35;100947.13;;;14.65;56.76
40490;BME280;26196;52.302;10.572;2022-09-20T02:50:55;100948.88;;;14.66;57.33
40490;BME280;26196;52.302;10.572;2022-09-20T03:34:15;100950.25;;;14.76;57.65
40490;BME280;26196;52.302;10.572;2022-09-20T03:42:35;100957.97;;;14.81;57.96
40490;BME280;26196;52.302;10.572;2022-09-20T03:46:45;100970.19;;;14.83;57.98
40490;BME280;26196;52.302;10.572;2022-09-20T03:55:50;100965.69;;;14.85;58.03
40490;BME280;26196;52.302;10.572;2022-09-20T04:04:30;100977.13;;;14.86;57.94
40490;BME280;26196;52.302;10.572;2022-09-20T04:25:54;100983.13;;;14.90;58.39
40490;BME280;26196;52.302;10.572;2022-09-20T04:30:03;100992.41;;;15.00;58.22
40490;BME280;26196;52.302;10.572;2022-09-20T04:34:15;100998.38;;;15.05;60.45
40490;BME280;26196;52.302;10.572;2022-09-20T04:38:19;100956.88;;;14.86;58.68
40490;BME280;26196;52.302;10.572;2022-09-20T04:59:58;101005.00;;;15.15;59.33
40490;BME280;26196;52.302;10.572;2022-09-20T05:04:22;101016.34;;;15.17;58.90
40490;BME280;26196;52.302;10.572;2022-09-20T05:08:53;101016.28;;;15.19;58.91
40490;BME280;26196;52.302;10.572;2022-09-20T05:21:46;101030.28;;;15.21;58.95
40490;BME280;26196;52.302;10.572;2022-09-20T05:38:29;101038.72;;;15.07;58.85
40490;BME280;26196;52.302;10.572;2022-09-20T05:42:40;101030.91;;;15.04;58.64
40490;BME280;26196;52.302;10.572;2022-09-20T05:51:13;101035.47;;;14.99;58.53
40490;BME280;26196;52.302;10.572;2022-09-20T06:03:51;101050.44;;;14.98;58.40
40490;BME280;26196;52.302;10.572;2022-09-20T06:08:32;101054.88;;;14.98;58.23
40490;BME280;26196;52.302;10.572;2022-09-20T06:12:54;101050.53;;;14.97;58.01
40490;BME280;26196;52.302;10.572;2022-09-20T06:21:36;101064.59;;;14.96;58.33
40490;BME280;26196;52.302;10.572;2022-09-20T06:25:46;101065.56;;;14.93;58.82
40490;BME280;26196;52.302;10.572;2022-09-20T06:29:57;101067.34;;;14.93;58.46
40490;BME280;26196;52.302;10.572;2022-09-20T06:34:03;101072.63;;;14.93;58.28
40490;BME280;26196;52.302;10.572;2022-09-20T06:42:42;101085.84;;;14.91;58.51
40490;BME280;26196;52.302;10.572;2022-09-20T06:46:43;101085.00;;;14.91;58.26
40490;BME280;26196;52.302;10.572;2022-09-20T06:50:44;101090.38;;;14.87;58.65
40490;BME280;26196;52.302;10.572;2022-09-20T06:54:50;101099.94;;;14.90;58.14
40490;BME280;26196;52.302;10.572;2022-09-20T06:58:53;101107.03;;;14.88;58.66
40490;BME280;26196;52.302;10.572;2022-09-20T07:02:53;101102.75;;;14.85;58.62
40490;BME280;26196;52.302;10.572;2022-09-20T07:07:03;101104.47;;;14.86;58.67
40490;BME280;26196;52.302;10.572;2022-09-20T07:11:05;101111.47;;;14.87;58.34
40490;BME280;26196;52.302;10.572;2022-09-20T07:15:08;101108.81;;;14.87;58.77
40490;BME280;26196;52.302;10.572;2022-09-20T07:19:09;101100.19;;;14.84;58.51
40490;BME280;26196;52.302;10.572;2022-09-20T07:23:09;101112.41;;;14.86;58.58
40490;BME280;26196;52.302;10.572;2022-09-20T07:27:10;101118.56;;;14.85;59.02
40490;BME280;26196;52.302;10.572;2022-09-20T07:31:11;101109.88;;;14.83;58.60
40490;BME280;26196;52.302;10.572;2022-09-20T07:35:12;101122.13;;;14.84;59.06
40490;BME280;26196;52.302;10.572;2022-09-20T07:39:12;101123.03;;;14.83;59.41
40490;BME280;26196;52.302;10.572;2022-09-20T07:43:13;101133.53;;;14.85;59.19
40490;BME280;26196;52.302;10.572;2022-09-20T07:47:13;101133.53;;;14.85;59.27
40490;BME280;26196;52.302;10.572;2022-09-20T07:51:14;101129.22;;;14.82;59.42
40490;BME280;26196;52.302;10.572;2022-09-20T07:55:14;101130.94;;;14.83;59.82
40490;BME280;26196;52.302;10.572;2022-09-20T07:59:15;101137.94;;;14.84;59.63
40490;BME280;26196;52.302;10.572;2022-09-20T08:03:16;101145.84;;;14.84;59.60
40490;BME280;26196;52.302;10.572;2022-09-20T08:07:16;101151.16;;;14.83;59.77
40490;BME280;26196;52.302;10.572;2022-09-20T08:11:20;101155.56;;;14.82;60.11
40490;BME280;26196;52.302;10.572;2022-09-20T08:15:24;101154.69;;;14.83;60.27
40490;BME280;26196;52.302;10.572;2022-09-20T08:19:25;101157.31;;;14.83;60.08
40490;BME280;26196;52.302;10.572;2022-09-20T08:23:26;101159.94;;;14.83;60.15
40490;BME280;26196;52.302;10.572;2022-09-20T08:27:27;101161.69;;;14.83;60.57
40490;BME280;26196;52.302;10.572;2022-09-20T08:31:29;101173.13;;;14.83;60.95
40490;BME280;26196;52.302;10.572;2022-09-20T08:35:36;101169.56;;;14.84;61.04
40490;BME280;26196;52.302;10.572;2022-09-20T08:39:36;101183.56;;;14.86;60.38
40490;BME280;26196;52.302;10.572;2022-09-20T08:43:41;101186.19;;;14.86;60.89
40490;BME280;26196;52.302;10.572;2022-09-20T08:48:05;101187.09;;;14.85;61.27
40490;BME280;26196;52.302;10.572;2022-09-20T08:52:19;101192.31;;;14.87;61.72
40490;BME280;26196;52.302;10.572;2022-09-20T08:56:26;101188.81;;;14.86;61.77
40490;BME280;26196;52.302;10.572;2022-09-20T09:00:30;101194.94;;;14.87;62.50
40490;BME280;26196;52.302;10.572;2022-09-20T09:04:35;101206.34;;;14.87;62.04
40490;BME280;26196;52.302;10.572;2022-09-20T09:08:36;101198.50;;;14.86;63.04
40490;BME280;26196;52.302;10.572;2022-09-20T09:12:38;101208.94;;;14.89;61.93
40490;BME280;26196;52.302;10.572;2022-09-20T09:16:41;101209.81;;;14.90;62.81
40490;BME280;26196;52.302;10.572;2022-09-20T09:20:41;101210.72;;;14.88;62.71
40490;BME280;26196;52.302;10.572;2022-09-20T09:25:09;101217.63;;;14.91;62.31
40490;BME280;26196;52.302;10.572;2022-09-20T09:29:18;101222.91;;;14.91;61.87
40490;BME280;26196;52.302;10.572;2022-09-20T09:37:27;101229.06;;;14.92;63.36
40490;BME280;26196;52.302;10.572;2022-09-20T09:41:30;101221.94;;;14.94;64.21
40490;BME280;26196;52.302;10.572;2022-09-20T09:45:36;101234.22;;;14.95;64.20
40490;BME280;26196;52.302;10.572;2022-09-20T09:49:55;101226.31;;;14.95;63.74
40490;BME280;26196;52.302;10.572;2022-09-20T09:53:55;101228.00;;;14.97;62.79
40490;BME280;26196;52.302;10.572;2022-09-20T09:58:07;101230.56;;;14.99;63.10
40490;BME280;26196;52.302;10.572;2022-09-20T10:07:00;101218.28;;;14.99;62.45
40490;BME280;26196;52.302;10.572;2022-09-20T10:11:29;101226.09;;;15.01;63.01
40490;BME280;26196;52.302;10.572;2022-09-20T10:15:55;101232.19;;;15.03;62.91
40490;BME280;26196;52.302;10.572;2022-09-20T10:24:28;101222.47;;;15.05;62.62
40490;BME280;26196;52.302;10.572;2022-09-20T10:33:09;101213.63;;;15.06;63.14
40490;BME280;26196;52.302;10.572;2022-09-20T10:37:44;101221.38;;;15.10;63.55
40490;BME280;26196;52.302;10.572;2022-09-20T10:51:00;101210.72;;;15.14;62.98
40490;BME280;26196;52.302;10.572;2022-09-20T11:08:53;101213.25;;;15.17;63.23
40490;BME280;26196;52.302;10.572;2022-09-20T11:13:59;101218.47;;;15.18;63.18
40490;BME280;26196;52.302;10.572;2022-09-20T11:17:30;101208.75;;;15.20;62.58
40490;BME280;26196;52.302;10.572;2022-09-20T11:26:10;101225.34;;;15.22;63.30
40490;BME280;26196;52.302;10.572;2022-09-20T11:30:18;101221.81;;;15.23;63.10
40490;BME280;26196;52.302;10.572;2022-09-20T11:34:20;101225.31;;;15.24;62.64
40490;BME280;26196;52.302;10.572;2022-09-20T11:42:36;101225.16;;;15.28;63.19
40490;BME280;26196;52.302;10.572;2022-09-20T11:59:41;101218.81;;;15.34;62.26
40490;BME280;26196;52.302;10.572;2022-09-20T12:03:49;101222.28;;;15.35;61.87
40490;BME280;26196;52.302;10.572;2022-09-20T12:07:55;101214.34;;;15.36;60.71
40490;BME280;26196;52.302;10.572;2022-09-20T12:11:58;101230.78;;;15.43;61.46
40490;BME280;26196;52.302;10.572;2022-09-20T12:16:15;101228.91;;;15.46;60.06
40490;BME280;26196;52.302;10.572;2022-09-20T12:24:37;101218.41;;;15.45;60.08
40490;BME280;26196;52.302;10.572;2022-09-20T12:28:46;101228.00;;;15.47;59.91
40490;BME280;26196;52.302;10.572;2022-09-20T12:32:54;101216.50;;;15.48;59.73
40490;BME280;26196;52.302;10.572;2022-09-20T12:41:10;101214.66;;;15.52;59.42
40490;BME280;26196;52.302;10.572;2022-09-20T12:45:16;101213.72;;;15.53;59.52
40490;BME280;26196;52.302;10.572;2022-09-20T12:54:06;101211.88;;;15.55;59.65
40490;BME280;26196;52.302;10.572;2022-09-20T13:15:33;101193.41;;;15.55;59.84
40490;BME280;26196;52.302;10.572;2022-09-20T13:19:45;101220.19;;;15.69;59.94
40490;BME280;26196;52.302;10.572;2022-09-20T13:23:51;101223.69;;;15.70;60.10
40490;BME280;26196;52.302;10.572;2022-09-20T13:36:24;101218.31;;;15.73;61.25
40490;BME280;26196;52.302;10.572;2022-09-20T13:40:40;101223.47;;;15.76;60.50
40490;BME280;26196;52.302;10.572;2022-09-20T13:44:42;101209.41;;;15.75;59.24
40490;BME280;26196;52.302;10.572;2022-09-20T13:48:46;101219.81;;;15.80;58.79
40490;BME280;26196;52.302;10.572;2022-09-20T13:52:55;101211.94;;;15.79;59.14
40490;BME280;26196;52.302;10.572;2022-09-20T13:57:02;101214.44;;;15.82;59.21
40490;BME280;26196;52.302;10.572;2022-09-20T14:01:05;101211.81;;;15.82;60.21
40490;BME280;26196;52.302;10.572;2022-09-20T14:05:18;101212.84;;;15.78;59.23
40490;BME280;26196;52.302;10.572;2022-09-20T14:09:39;101223.91;;;15.87;59.06
40490;BME280;26196;52.302;10.572;2022-09-20T14:13:42;101223.97;;;15.86;59.17
40490;BME280;26196;52.302;10.572;2022-09-20T14:17:43;101232.72;;;15.88;59.04
40490;BME280;26196;52.302;10.572;2022-09-20T14:21:44;101237.00;;;15.90;59.26
40490;BME280;26196;52.302;10.572;2022-09-20T14:26:05;101237.75;;;15.94;56.78
40490;BME280;26196;52.302;10.572;2022-09-20T14:30:06;101236.72;;;15.98;56.11
40490;BME280;26196;52.302;10.572;2022-09-20T14:34:26;101255.25;;;15.96;57.01
40490;BME280;26196;52.302;10.572;2022-09-20T14:38:27;101255.09;;;16.01;56.25
40490;BME280;26196;52.302;10.572;2022-09-20T14:46:35;101252.38;;;16.03;55.86
40490;BME280;26196;52.302;10.572;2022-09-20T14:50:43;101230.06;;;15.88;56.60
40490;BME280;26196;52.302;10.572;2022-09-20T14:54:57;101242.06;;;15.96;57.71
40490;BME280;26196;52.302;10.572;2022-09-20T15:03:14;101263.88;;;16.02;57.68
40490;BME280;26196;52.302;10.572;2022-09-20T15:07:16;101255.88;;;16.03;57.87
40490;BME280;26196;52.302;10.572;2022-09-20T15:11:18;101263.78;;;16.03;58.33
40490;BME280;26196;52.302;10.572;2022-09-20T15:15:18;101257.66;;;16.03;58.79
40490;BME280;26196;52.302;10.572;2022-09-20T15:19:19;101259.31;;;16.05;58.00
40490;BME280;26196;52.302;10.572;2022-09-20T15:23:20;101265.44;;;16.06;58.01
40490;BME280;26196;52.302;10.572;2022-09-20T15:27:20;101265.44;;;16.06;58.11
40490;BME280;26196;52.302;10.572;2022-09-20T15:31:21;101261.97;;;16.05;58.44
40490;BME280;26196;52.302;10.572;2022-09-20T15:35:21;101278.63;;;16.07;57.72
40490;BME280;26196;52.302;10.572;2022-09-20T15:39:21;101282.97;;;16.08;57.31
40490;BME280;26196;52.302;10.572;2022-09-20T15:43:23;101269.31;;;15.97;58.27
40490;BME280;26196;52.302;10.572;2022-09-20T15:47:26;101286.19;;;16.16;57.14
40490;BME280;26196;52.302;10.572;2022-09-20T15:51:28;101291.56;;;16.13;56.87
40490;BME280;26196;52.302;10.572;2022-09-20T15:55:29;101271.41;;;16.11;57.34
40490;BME280;26196;52.302;10.572;2022-09-20T15:59:30;101270.56;;;16.10;57.76
40490;BME280;26196;52.302;10.572;2022-09-20T16:03:33;101275.72;;;16.13;57.65
40490;BME280;26196;52.302;10.572;2022-09-20T16:07:34;101279.19;;;16.15;57.96
40490;BME280;26196;52.302;10.572;2022-09-20T16:11:35;101274.94;;;16.11;57.76
40490;BME280;26196;52.302;10.572;2022-09-20T16:15:36;101280.91;;;16.16;57.99
40490;BME280;26196;52.302;10.572;2022-09-20T16:19:37;101285.97;;;16.23;57.82
40490;BME280;26196;52.302;10.572;2022-09-20T16:23:39;101293.84;;;16.24;57.47
40490;BME280;26196;52.302;10.572;2022-09-20T16:27:40;101305.13;;;16.28;57.55
40490;BME280;26196;52.302;10.572;2022-09-20T16:31:45;101312.13;;;16.29;57.83
40490;BME280;26196;52.302;10.572;2022-09-20T16:35:46;101310.41;;;16.28;57.70
40490;BME280;26196;52.302;10.572;2022-09-20T16:39:47;101322.69;;;16.29;57.84
40490;BME280;26196;52.302;10.572;2022-09-20T16:43:48;101318.38;;;16.26;57.85
40490;BME280;26196;52.302;10.572;2022-09-20T16:47:52;101313.09;;;16.26;57.21
40490;BME280;26196;52.302;10.572;2022-09-20T16:51:56;101320.88;;;16.31;57.85
40490;BME280;26196;52.302;10.572;2022-09-20T16:55:56;101329.72;;;16.30;57.81
40490;BME280;26196;52.302;10.572;2022-09-20T16:59:57;101324.56;;;16.27;58.62
40490;BME280;26196;52.302;10.572;2022-09-20T17:03:59;101325.47;;;16.26;58.62
40490;BME280;26196;52.302;10.572;2022-09-20T17:08:00;101328.91;;;16.28;58.13
40490;BME280;26196;52.302;10.572;2022-09-20T17:12:00;101335.97;;;16.27;57.98
40490;BME280;26196;52.302;10.572;2022-09-20T17:16:11;101332.47;;;16.27;58.18
40490;BME280;26196;52.302;10.572;2022-09-20T17:20:11;101345.63;;;16.28;57.95
40490;BME280;26196;52.302;10.572;2022-09-20T17:24:12;101342.03;;;16.29;58.07
40490;BME280;26196;52.302;10.572;2022-09-20T17:28:20;101346.53;;;16.27;57.66
40490;BME280;26196;52.302;10.572;2022-09-20T17:32:20;101352.69;;;16.28;57.42
40490;BME280;26196;52.302;10.572;2022-09-20T17:36:20;101347.41;;;16.28;57.29
40490;BME280;26196;52.302;10.572;2022-09-20T17:40:21;101350.03;;;16.28;57.21
40490;BME280;26196;52.302;10.572;2022-09-20T17:44:21;101355.31;;;16.28;57.74
40490;BME280;26196;52.302;10.572;2022-09-20T17:48:23;101356.25;;;16.27;57.66
40490;BME280;26196;52.302;10.572;2022-09-20T17:52:23;101366.88;;;16.25;57.16
40490;BME280;26196;52.302;10.572;2022-09-20T17:56:25;101373.81;;;16.28;57.19
40490;BME280;26196;52.302;10.572;2022-09-20T18:00:30;101370.31;;;16.27;56.96
40490;BME280;26196;52.302;10.572;2022-09-20T18:04:30;101374.75;;;16.27;57.00
40490;BME280;26196;52.302;10.572;2022-09-20T18:08:31;101384.50;;;16.25;56.95
40490;BME280;26196;52.302;10.572;2022-09-20T18:12:31;101383.56;;;16.26;56.84
40490;BME280;26196;52.302;10.572;2022-09-20T18:16:32;101385.31;;;16.27;57.11
40490;BME280;26196;52.302;10.572;2022-09-20T18:20:34;101394.84;;;16.31;58.17
40490;BME280;26196;52.302;10.572;2022-09-20T18:24:34;101400.00;;;16.34;57.59
40490;BME280;26196;52.302;10.572;2022-09-20T18:28:34;101400.94;;;16.33;57.56
40490;BME280;26196;52.302;10.572;2022-09-20T18:32:35;101408.84;;;16.33;58.02
40490;BME280;26196;52.302;10.572;2022-09-20T18:36:37;101414.13;;;16.33;57.48
40490;BME280;26196;52.302;10.572;2022-09-20T18:40:38;101420.16;;;16.36;57.89
40490;BME280;26196;52.302;10.572;2022-09-20T18:44:41;101422.97;;;16.32;57.85
40490;BME280;26196;52.302;10.572;2022-09-20T18:48:45;101423.09;;;16.29;56.83
40490;BME280;26196;52.302;10.572;2022-09-20T18:52:49;101439.78;;;16.29;56.49
40490;BME280;26196;52.302;10.572;2022-09-20T18:56:51;101431.13;;;16.26;56.37
40490;BME280;26196;52.302;10.572;2022-09-20T19:05:32;101438.19;;;16.25;55.93
40490;BME280;26196;52.302;10.572;2022-09-20T19:14:04;101434.81;;;16.22;55.47
40490;BME280;26196;52.302;10.572;2022-09-20T19:18:13;101450.69;;;16.20;55.21
40490;BME280;26196;52.302;10.572;2022-09-20T19:23:15;101458.59;;;16.22;54.86
40490;BME280;26196;52.302;10.572;2022-09-20T19:26:51;101461.28;;;16.20;54.63
40490;BME280;26196;52.302;10.572;2022-09-20T19:30:52;101464.88;;;16.17;54.43
40490;BME280;26196;52.302;10.572;2022-09-20T19:34:54;101465.81;;;16.16;54.19
40490;BME280;26196;52.302;10.572;2022-09-20T19:39:02;101471.88;;;16.18;54.93
40490;BME280;26196;52.302;10.572;2022-09-20T19:43:42;101471.16;;;16.13;54.07
40490;BME280;26196;52.302;10.572;2022-09-20T19:51:59;101481.09;;;16.07;54.28
40490;BME280;26196;52.302;10.572;2022-09-20T20:00:16;101490.81;;;16.06;53.62
40490;BME280;26196;52.302;10.572;2022-09-20T20:04:18;101498.81;;;16.03;53.68
40490;BME280;26196;52.302;10.572;2022-09-20T20:08:42;101501.56;;;16.00;53.45
40490;BME280;26196;52.302;10.572;2022-09-20T20:21:01;101502.59;;;15.96;53.08
40490;BME280;26196;52.302;10.572;2022-09-20T20:29:24;101511.59;;;15.90;52.58
40490;BME280;26196;52.302;10.572;2022-09-20T20:33:24;101510.81;;;15.87;52.59
40490;BME280;26196;52.302;10.572;2022-09-20T20:37:25;101510.97;;;15.82;52.41
40490;BME280;26196;52.302;10.572;2022-09-20T20:41:27;101524.09;;;15.85;52.18
40490;BME280;26196;52.302;10.572;2022-09-20T20:45:30;101521.59;;;15.81;52.14
40490;BME280;26196;52.302;10.572;2022-09-20T20:49:31;101524.22;;;15.81;51.93
40490;BME280;26196;52.302;10.572;2022-09-20T20:53:34;101519.91;;;15.78;51.87
40490;BME280;26196;52.302;10.572;2022-09-20T20:57:34;101526.97;;;15.78;51.67
40490;BME280;26196;52.302;10.572;2022-09-20T21:01:36;101523.50;;;15.75;51.56
40490;BME280;26196;52.302;10.572;2022-09-20T21:05:38;101532.44;;;15.71;51.66
40490;BME280;26196;52.302;10.572;2022-09-20T21:09:39;101536.91;;;15.68;51.37
40490;BME280;26196;52.302;10.572;2022-09-20T21:13:39;101536.06;;;15.67;51.40
40490;BME280;26196;52.302;10.572;2022-09-20T21:17:40;101543.16;;;15.65;51.36
40490;BME280;26196;52.302;10.572;2022-09-20T21:21:42;101551.19;;;15.62;51.27
40490;BME280;26196;52.302;10.572;2022-09-20T21:25:43;101552.06;;;15.61;51.46
40490;BME280;26196;52.302;10.572;2022-09-20T21:29:44;101552.19;;;15.58;51.29
40490;BME280;26196;52.302;10.572;2022-09-20T21:33:44;101545.19;;;15.57;51.10
40490;BME280;26196;52.302;10.572;2022-09-20T21:37:45;101555.84;;;15.54;50.81
40490;BME280;26196;52.302;10.572;2022-09-20T21:41:45;101547.97;;;15.52;50.71
40490;BME280;26196;52.302;10.572;2022-09-20T21:45:46;101555.97;;;15.49;50.63
40490;BME280;26196;52.302;10.572;2022-09-20T21:49:46;101558.72;;;15.46;50.50
40490;BME280;26196;52.302;10.572;2022-09-20T21:53:50;101563.09;;;15.46;50.62
40490;BME280;26196;52.302;10.572;2022-09-20T21:57:51;101563.19;;;15.43;50.41
40490;BME280;26196;52.302;10.572;2022-09-20T22:01:52;101568.53;;;15.41;50.03
40490;BME280;26196;52.302;10.572;2022-09-20T22:05:54;101571.22;;;15.40;50.12
40490;BME280;26196;52.302;10.572;2022-09-20T22:09:55;101577.50;;;15.36;50.34
40490;BME280;26196;52.302;10.572;2022-09-20T22:13:56;101573.13;;;15.35;50.21
40490;BME280;26196;52.302;10.572;2022-09-20T22:17:56;101570.56;;;15.33;49.87
40490;BME280;26196;52.302;10.572;2022-09-20T22:21:57;101581.09;;;15.33;49.95
40490;BME280;26196;52.302;10.572;2022-09-20T22:25:59;101577.69;;;15.29;49.84
40490;BME280;26196;52.302;10.572;2022-09-20T22:29:59;101585.69;;;15.26;49.71
40490;BME280;26196;52.302;10.572;2022-09-20T22:34:04;101574.31;;;15.24;49.91
40490;BME280;26196;52.302;10.572;2022-09-20T22:38:04;101581.41;;;15.22;49.61
40490;BME280;26196;52.302;10.572;2022-09-20T22:42:06;101575.31;;;15.20;49.67
40490;BME280;26196;52.302;10.572;2022-09-20T22:46:09;101571.91;;;15.17;49.60
40490;BME280;26196;52.302;10.572;2022-09-20T22:50:10;101573.75;;;15.15;49.43
40490;BME280;26196;52.302;10.572;2022-09-20T22:54:11;101583.50;;;15.11;49.09
40490;BME280;26196;52.302;10.572;2022-09-20T22:58:11;101577.38;;;15.09;48.92
40490;BME280;26196;52.302;10.572;2022-09-20T23:02:12;101579.16;;;15.08;48.99
40490;BME280;26196;52.302;10.572;2022-09-20T23:06:16;101577.47;;;15.06;49.28
40490;BME280;26196;52.302;10.572;2022-09-20T23:10:20;101574.94;;;15.03;48.84
40490;BME280;26196;52.302;10.572;2022-09-20T23:14:21;101574.97;;;15.01;48.98
40490;BME280;26196;52.302;10.572;2022-09-20T23:18:22;101575.03;;;15.00;48.85
40490;BME280;26196;52.302;10.572;2022-09-20T23:22:23;101581.16;;;15.00;48.84
40490;BME280;26196;52.302;10.572;2022-09-20T23:26:24;101584.72;;;14.99;48.45
40490;BME280;26196;52.302;10.572;2022-09-20T23:30:24;101589.19;;;14.96;48.79
40490;BME280;26196;52.302;10.572;2022-09-20T23:34:25;101590.97;;;14.95;48.81
40490;BME280;26196;52.302;10.572;2022-09-20T23:38:25;101594.53;;;14.94;48.54
40490;BME280;26196;52.302;10.572;2022-09-20T23:42:26;101593.78;;;14.89;48.53
40490;BME280;26196;52.302;10.572;2022-09-20T23:46:26;101596.47;;;14.87;48.25
40490;BME280;26196;52.302;10.572;2022-09-20T23:50:27;101596.53;;;14.86;47.90
40490;BME280;26196;52.302;10.572;2022-09-20T23:54:27;101600.09;;;14.83;48.41
40490;BME280;26196;52.302;10.572;2022-09-20T23:58:28;101606.25;;;14.82;47.96
